Time;durP1;ratioP1;P1;durP2;ratioP2;P2;SDS_P1;SDS_P2;PMS_P1;PMS_P2;Temp;Humidity;BMP_temperature;BMP_pressure;BME280_temperature;BME280_humidity;BME280_pressure;Samples;Min_cycle;Max_cycle;Signal;HPM_P1;HPM_P2
2023/03/17 00:00:40;;;;;;;7.47;3.80;;;;;;;3.87;60.78;101222.38;7395565;19;20014;-71
2023/03/17 00:03:09;;;;;;;7.35;3.78;;;;;;;3.82;61.15;101211.06;7395267;19;20091;-71
2023/03/17 00:05:40;;;;;;;9.15;4.25;;;;;;;3.83;61.18;101213.66;7395774;19;20027;-70
2023/03/17 00:08:14;;;;;;;7.95;3.88;;;;;;;3.81;59.93;101210.16;7395374;19;20024;-71
2023/03/17 00:10:43;;;;;;;8.13;3.90;;;;;;;3.81;61.69;101206.72;7395327;19;20481;-70
2023/03/17 00:13:13;;;;;;;6.70;3.92;;;;;;;3.79;61.58;101203.22;7394198;19;20026;-71
2023/03/17 00:15:41;;;;;;;8.75;4.18;;;;;;;3.77;61.51;101198.00;7395526;19;20011;-70
2023/03/17 00:18:13;;;;;;;6.60;3.88;;;;;;;3.77;61.24;101192.81;7395401;19;20019;-70
2023/03/17 00:20:45;;;;;;;5.65;3.88;;;;;;;3.75;61.25;101191.91;7395489;19;20079;-71
2023/03/17 00:23:17;;;;;;;7.28;4.47;;;;;;;3.75;61.42;101190.22;7392740;19;20094;-72
2023/03/17 00:25:46;;;;;;;7.43;4.03;;;;;;;3.75;61.84;101191.91;7394868;19;20086;-71
2023/03/17 00:28:19;;;;;;;8.30;3.95;;;;;;;3.75;61.66;101185.03;7394642;19;20504;-71
2023/03/17 00:30:49;;;;;;;7.63;4.03;;;;;;;3.73;61.33;101184.13;7393044;19;20010;-71
2023/03/17 00:33:19;;;;;;;11.20;4.18;;;;;;;3.74;61.84;101183.28;7393245;19;20510;-71
2023/03/17 00:35:51;;;;;;;10.77;4.13;;;;;;;3.75;61.10;101177.22;7395392;19;20019;-72
2023/03/17 00:38:21;;;;;;;7.00;4.22;;;;;;;3.75;61.85;101172.03;7395300;19;20019;-72
2023/03/17 00:40:50;;;;;;;7.82;4.20;;;;;;;3.76;61.79;101172.91;7395023;19;20019;-71
2023/03/17 00:43:19;;;;;;;5.80;3.70;;;;;;;3.75;61.99;101169.44;7393979;19;20035;-70
2023/03/17 00:45:48;;;;;;;9.20;4.03;;;;;;;3.74;61.45;101165.09;7394245;19;20419;-70
2023/03/17 00:48:18;;;;;;;11.98;4.75;;;;;;;3.72;61.62;101151.22;7392704;19;20452;-71
2023/03/17 00:50:48;;;;;;;7.38;4.20;;;;;;;3.71;61.81;101149.47;7394638;19;20019;-71
2023/03/17 00:53:21;;;;;;;10.68;5.25;;;;;;;3.72;61.23;101143.44;7393071;19;20015;-71
2023/03/17 00:55:50;;;;;;;8.00;4.55;;;;;;;3.72;62.11;101145.19;7392288;19;20493;-71
2023/03/17 00:58:27;;;;;;;7.13;4.40;;;;;;;3.66;60.87;101134.72;7394357;19;20026;-70
2023/03/17 01:00:56;;;;;;;7.70;4.20;;;;;;;3.70;62.21;101133.91;7394770;19;20019;-70
2023/03/17 01:03:26;;;;;;;8.32;4.72;;;;;;;3.69;61.93;101133.03;7394568;19;20466;-71
2023/03/17 01:05:56;;;;;;;8.05;4.72;;;;;;;3.68;61.80;101139.06;7401878;19;20045;-71
2023/03/17 01:08:28;;;;;;;8.15;4.55;;;;;;;3.68;61.84;101141.66;7398874;19;20018;-71
2023/03/17 01:10:58;;;;;;;6.20;4.00;;;;;;;3.67;62.20;101144.25;7401963;19;20018;-71
2023/03/17 01:13:28;;;;;;;9.63;5.25;;;;;;;3.65;62.15;101146.81;7399577;19;20018;-71
2023/03/17 01:15:57;;;;;;;11.95;4.78;;;;;;;3.66;61.49;101143.34;7400911;19;20015;-71
2023/03/17 01:18:26;;;;;;;12.48;6.13;;;;;;;3.63;61.93;101135.53;7400833;19;20529;-71
2023/03/17 01:20:54;;;;;;;11.13;4.45;;;;;;;3.64;62.00;101141.59;7401222;19;20018;-70
2023/03/17 01:23:23;;;;;;;7.38;5.00;;;;;;;3.62;61.72;101138.97;7398623;19;20078;-70
2023/03/17 01:25:55;;;;;;;8.02;4.63;;;;;;;3.61;61.29;101132.03;7397885;19;20497;-72
2023/03/17 01:28:24;;;;;;;9.00;4.65;;;;;;;3.61;61.77;101129.44;7398609;19;20019;-71
2023/03/17 01:30:52;;;;;;;9.85;4.57;;;;;;;3.59;61.79;101121.66;7397905;19;20513;-71
2023/03/17 01:33:21;;;;;;;8.48;4.50;;;;;;;3.57;61.74;101109.50;7399105;19;20090;-71
2023/03/17 01:35:49;;;;;;;10.07;4.18;;;;;;;3.56;61.94;101110.34;7400361;19;20433;-70
2023/03/17 01:38:18;;;;;;;8.82;4.93;;;;;;;3.53;61.71;101100.81;7400230;19;20011;-68
2023/03/17 01:40:48;;;;;;;9.73;4.80;;;;;;;3.50;61.50;101097.31;7400482;19;20023;-68
2023/03/17 01:43:26;;;;;;;10.00;4.68;;;;;;;3.47;59.72;101095.53;7399758;19;20035;-68
2023/03/17 01:46:19;;;;;;;8.32;4.70;;;;;;;3.46;60.99;101103.31;7400327;19;20367;-70
2023/03/17 01:48:51;;;;;;;9.73;4.35;;;;;;;3.42;61.86;101086.84;7398170;19;20025;-67
2023/03/17 01:51:24;;;;;;;8.05;4.47;;;;;;;3.40;61.94;101088.56;7400200;19;20548;-66
2023/03/17 01:53:54;;;;;;;7.93;4.85;;;;;;;3.39;61.96;101086.81;7398910;19;20014;-66
2023/03/17 01:56:23;;;;;;;7.43;4.80;;;;;;;3.35;62.21;101078.09;7399988;19;20006;-67
2023/03/17 01:58:56;;;;;;;9.60;4.32;;;;;;;3.33;62.03;101087.56;7399776;19;20021;-66
2023/03/17 02:01:30;;;;;;;7.35;4.60;;;;;;;3.32;61.93;101083.25;7400326;19;20022;-65
2023/03/17 02:04:00;;;;;;;12.00;5.30;;;;;;;3.29;62.27;101083.22;7398366;19;20018;-66
2023/03/17 02:06:29;;;;;;;9.27;4.82;;;;;;;3.26;61.84;101073.66;7399285;19;20565;-66
2023/03/17 02:08:58;;;;;;;10.27;5.65;;;;;;;3.25;62.07;101066.72;7399648;19;20102;-69
2023/03/17 02:11:26;;;;;;;13.77;4.53;;;;;;;3.24;62.44;101066.72;7399019;19;20037;-66
2023/03/17 02:13:57;;;;;;;9.55;5.72;;;;;;;3.21;62.29;101059.78;7396426;19;20537;-66
2023/03/17 02:16:26;;;;;;;10.05;5.35;;;;;;;3.20;62.29;101073.59;7399071;19;20043;-66
2023/03/17 02:18:54;;;;;;;11.10;5.45;;;;;;;3.19;62.18;101065.78;7396856;19;20023;-66
2023/03/17 02:21:39;;;;;;;9.23;4.47;;;;;;;3.19;61.84;101070.97;7396354;19;20099;-66
2023/03/17 02:24:12;;;;;;;6.75;4.65;;;;;;;3.20;62.38;101072.72;7397059;19;20435;-66
2023/03/17 02:26:40;;;;;;;9.25;5.20;;;;;;;3.20;62.93;101072.72;7399471;19;20018;-66
2023/03/17 02:29:09;;;;;;;7.22;4.95;;;;;;;3.18;62.46;101062.31;7398894;19;20074;-66
2023/03/17 02:31:38;;;;;;;8.75;5.55;;;;;;;3.19;62.53;101061.47;7398820;19;20023;-65
2023/03/17 02:34:06;;;;;;;8.02;4.13;;;;;;;3.19;62.60;101061.47;7396998;19;20022;-65
2023/03/17 02:36:38;;;;;;;7.18;4.90;;;;;;;3.20;62.41;101064.94;7396571;19;20081;-65
2023/03/17 02:39:06;;;;;;;9.30;4.65;;;;;;;3.21;62.06;101069.25;7398230;19;20490;-66
2023/03/17 02:41:36;;;;;;;8.07;4.57;;;;;;;3.23;61.98;101059.78;7398150;19;20021;-66
2023/03/17 02:44:04;;;;;;;6.78;4.47;;;;;;;3.20;61.84;101054.56;7396524;19;20482;-67
2023/03/17 02:46:33;;;;;;;8.90;4.60;;;;;;;3.23;62.02;101049.41;7397914;19;20086;-66
2023/03/17 02:49:02;;;;;;;9.63;5.10;;;;;;;3.26;62.00;101059.81;7398213;19;20082;-66
2023/03/17 02:51:31;;;;;;;8.82;5.50;;;;;;;3.26;61.90;101062.41;7396171;19;20018;-66
2023/03/17 02:54:02;;;;;;;8.30;4.60;;;;;;;3.27;61.80;101053.78;7396553;19;20090;-66
2023/03/17 02:56:30;;;;;;;9.82;4.70;;;;;;;3.28;61.64;101054.66;7396492;19;20039;-66
2023/03/17 02:58:59;;;;;;;8.35;5.22;;;;;;;3.28;61.10;101052.94;7396392;19;20021;-66
2023/03/17 03:01:29;;;;;;;6.43;4.60;;;;;;;3.30;61.05;101052.94;7397368;19;20086;-66
2023/03/17 03:03:58;;;;;;;6.38;4.07;;;;;;;3.32;61.61;101053.84;7396879;19;20369;-66
2023/03/17 03:06:26;;;;;;;12.07;5.82;;;;;;;3.33;60.88;101058.19;7398794;19;20086;-66
2023/03/17 03:08:55;;;;;;;8.73;4.38;;;;;;;3.33;61.40;101056.47;7397226;19;20086;-66
2023/03/17 03:11:28;;;;;;;7.75;4.47;;;;;;;3.35;60.54;101052.19;7397294;19;20066;-66
2023/03/17 03:13:56;;;;;;;8.05;4.55;;;;;;;3.36;60.67;101056.50;7396256;19;20042;-66
2023/03/17 03:16:25;;;;;;;9.48;5.05;;;;;;;3.38;60.75;101051.34;7397563;19;20086;-66
2023/03/17 03:18:53;;;;;;;8.73;4.90;;;;;;;3.39;60.84;101053.09;7398463;19;20010;-67
2023/03/17 03:21:22;;;;;;;8.88;4.95;;;;;;;3.40;61.12;101049.66;7396509;19;20078;-67
2023/03/17 03:23:50;;;;;;;8.40;4.65;;;;;;;3.42;60.48;101053.13;7396048;19;20082;-67
2023/03/17 03:26:19;;;;;;;8.57;4.80;;;;;;;3.42;60.42;101054.00;7395000;19;20075;-67
2023/03/17 03:28:50;;;;;;;11.27;4.63;;;;;;;3.43;60.15;101062.66;7396685;19;20078;-66
2023/03/17 03:31:19;;;;;;;9.05;4.53;;;;;;;3.44;60.58;101054.00;7395015;19;20015;-66
2023/03/17 03:33:48;;;;;;;5.97;3.78;;;;;;;3.43;60.12;101040.16;7395172;19;20098;-68
2023/03/17 03:36:17;;;;;;;8.20;4.55;;;;;;;3.45;59.47;101041.91;7396053;19;20090;-68
2023/03/17 03:38:45;;;;;;;7.63;4.60;;;;;;;3.45;59.91;101047.09;7396460;19;20038;-68
2023/03/17 03:41:14;;;;;;;9.43;4.72;;;;;;;3.45;60.13;101052.28;7396097;19;20554;-67
2023/03/17 03:43:43;;;;;;;6.95;4.30;;;;;;;3.43;59.97;101055.72;7395029;19;20382;-67
2023/03/17 03:46:14;;;;;;;8.25;4.53;;;;;;;3.43;59.50;101058.31;7394610;19;20028;-68
2023/03/17 03:48:42;;;;;;;8.07;4.35;;;;;;;3.43;60.14;101063.50;7396491;19;20018;-67
2023/03/17 03:51:11;;;;;;;11.18;4.53;;;;;;;3.42;60.24;101054.00;7396220;19;20078;-67
2023/03/17 03:53:39;;;;;;;8.88;4.78;;;;;;;3.43;59.86;101055.72;7395078;19;20078;-67
2023/03/17 03:56:09;;;;;;;8.82;4.85;;;;;;;3.43;60.11;101052.25;7396061;19;20014;-68
2023/03/17 03:58:37;;;;;;;8.63;4.43;;;;;;;3.43;60.20;101045.34;7393848;19;20557;-67
2023/03/17 04:01:06;;;;;;;9.50;4.13;;;;;;;3.42;59.89;101042.72;7395310;19;20553;-68
2023/03/17 04:03:37;;;;;;;8.23;4.65;;;;;;;3.41;59.60;101039.28;7394646;19;20085;-68
2023/03/17 04:06:07;;;;;;;5.97;4.15;;;;;;;3.41;60.43;101035.81;7396077;19;20074;-68
2023/03/17 04:08:35;;;;;;;11.68;4.65;;;;;;;3.40;59.50;101037.53;7395190;19;20019;-68
2023/03/17 04:11:10;;;;;;;7.68;4.47;;;;;;;3.40;59.25;101034.94;7395205;19;20066;-68
2023/03/17 04:13:39;;;;;;;6.18;3.97;;;;;;;3.38;60.08;101028.84;7392529;19;20086;-68
2023/03/17 04:16:08;;;;;;;9.02;4.68;;;;;;;3.38;60.45;101025.41;7395092;19;20019;-67
2023/03/17 04:18:46;;;;;;;8.70;4.25;;;;;;;3.37;59.69;101015.88;7392939;19;20014;-69
2023/03/17 04:21:17;;;;;;;7.07;4.10;;;;;;;3.37;60.25;101014.13;7395629;19;20498;-68
2023/03/17 04:23:46;;;;;;;8.23;5.00;;;;;;;3.37;59.92;101018.47;7393128;19;20502;-69
2023/03/17 04:26:16;;;;;;;6.82;4.20;;;;;;;3.36;59.97;101011.53;7394643;19;20085;-68
2023/03/17 04:28:45;;;;;;;6.32;4.25;;;;;;;3.34;60.15;101011.53;7395504;19;20018;-68
2023/03/17 04:31:13;;;;;;;10.77;4.70;;;;;;;3.35;60.53;101022.75;7393273;19;20019;-68
2023/03/17 04:33:44;;;;;;;8.77;4.70;;;;;;;3.34;59.95;101028.81;7393247;19;20082;-69
2023/03/17 04:36:19;;;;;;;8.45;4.22;;;;;;;3.32;59.21;101025.31;7394386;19;20018;-69
2023/03/17 04:38:48;;;;;;;7.95;4.30;;;;;;;3.30;59.59;101019.22;7401624;19;20493;-67
2023/03/17 04:41:17;;;;;;;10.70;4.43;;;;;;;3.30;59.74;101016.63;7402126;19;20502;-69
2023/03/17 04:43:45;;;;;;;8.95;4.82;;;;;;;3.32;59.75;101009.75;7400888;19;20022;-68
2023/03/17 04:46:15;;;;;;;10.05;4.75;;;;;;;3.32;59.94;101009.75;7402183;19;20082;-68
2023/03/17 04:48:46;;;;;;;7.75;4.40;;;;;;;3.31;59.75;101014.09;7402536;19;20018;-69
2023/03/17 04:51:14;;;;;;;8.30;4.43;;;;;;;3.31;60.07;101014.09;7402665;19;20033;-67
2023/03/17 04:53:43;;;;;;;10.45;5.28;;;;;;;3.30;60.02;101001.97;7400847;19;20094;-68
2023/03/17 04:56:12;;;;;;;8.50;5.10;;;;;;;3.30;60.25;101001.97;7402002;19;20026;-68
2023/03/17 04:58:40;;;;;;;8.38;4.80;;;;;;;3.30;59.88;100998.47;7401273;19;20082;-68
2023/03/17 05:01:09;;;;;;;6.40;4.20;;;;;;;3.29;59.98;101005.41;7398936;19;20086;-67
2023/03/17 05:03:37;;;;;;;7.78;4.57;;;;;;;3.30;59.74;101017.53;7400108;19;20035;-69
2023/03/17 05:06:09;;;;;;;11.32;4.43;;;;;;;3.29;59.02;101010.59;7398325;19;20078;-68
2023/03/17 05:08:38;;;;;;;5.80;3.83;;;;;;;3.29;60.01;101005.41;7401721;19;20372;-68
2023/03/17 05:11:07;;;;;;;7.60;3.83;;;;;;;3.30;59.73;100986.41;7401044;19;20569;-68
2023/03/17 05:13:35;;;;;;;5.85;4.10;;;;;;;3.30;59.73;100994.19;7399782;19;20037;-68
2023/03/17 05:16:04;;;;;;;10.73;4.63;;;;;;;3.31;59.80;101002.81;7401187;19;20086;-68
2023/03/17 05:18:33;;;;;;;9.32;4.65;;;;;;;3.32;59.85;101021.00;7397491;19;20549;-67
2023/03/17 05:21:01;;;;;;;8.38;4.57;;;;;;;3.33;59.23;101007.19;7400746;19;20427;-67
2023/03/17 05:23:32;;;;;;;8.38;4.15;;;;;;;3.32;59.54;100996.78;7398226;19;20342;-68
2023/03/17 05:26:01;;;;;;;5.63;4.22;;;;;;;3.34;59.23;100998.56;7398489;19;20014;-68
2023/03/17 05:28:29;;;;;;;7.22;3.75;;;;;;;3.35;59.29;100996.81;7397941;19;20033;-68
2023/03/17 05:30:58;;;;;;;6.80;4.53;;;;;;;3.36;59.73;101002.03;7400675;19;20022;-67
2023/03/17 05:33:27;;;;;;;8.85;3.92;;;;;;;3.37;59.38;101003.75;7399320;19;20017;-68
2023/03/17 05:35:56;;;;;;;6.50;4.22;;;;;;;3.39;59.64;100996.03;7400291;19;20018;-68
2023/03/17 05:38:24;;;;;;;11.40;4.60;;;;;;;3.40;58.92;100998.63;7400182;19;20023;-68
2023/03/17 05:40:55;;;;;;;8.20;4.30;;;;;;;3.42;58.74;101007.31;7399724;19;20425;-68
2023/03/17 05:43:24;;;;;;;7.50;4.20;;;;;;;3.45;59.33;101003.00;7396870;19;20503;-69
2023/03/17 05:45:52;;;;;;;7.28;4.03;;;;;;;3.45;58.57;101011.66;7397243;19;20082;-69
2023/03/17 05:48:21;;;;;;;9.98;4.13;;;;;;;3.48;58.94;101010.81;7399216;19;20421;-69
2023/03/17 05:50:50;;;;;;;9.50;4.57;;;;;;;3.49;58.71;101016.03;7399664;19;20492;-68
2023/03/17 05:53:20;;;;;;;7.22;3.70;;;;;;;3.52;58.68;101017.78;7398883;19;20023;-69
2023/03/17 05:55:48;;;;;;;6.95;4.45;;;;;;;3.53;58.69;101015.19;7399987;19;20023;-67
2023/03/17 05:58:19;;;;;;;9.10;4.95;;;;;;;3.55;58.52;101021.28;7399325;19;20015;-68
2023/03/17 06:00:48;;;;;;;11.10;5.25;;;;;;;3.59;58.57;101011.81;7399485;19;20019;-68
2023/03/17 06:03:16;;;;;;;7.65;3.55;;;;;;;3.60;58.05;101008.34;7397712;19;20439;-69
2023/03/17 06:05:45;;;;;;;7.78;4.45;;;;;;;3.62;58.09;101014.44;7398765;19;20556;-68
2023/03/17 06:08:14;;;;;;;7.00;3.85;;;;;;;3.64;58.67;101017.03;7396133;19;20014;-68
2023/03/17 06:10:43;;;;;;;7.53;3.90;;;;;;;3.67;58.21;101015.34;7398037;19;20481;-68
2023/03/17 06:13:12;;;;;;;7.88;3.80;;;;;;;3.69;58.49;101016.25;7396373;19;20014;-68
2023/03/17 06:15:43;;;;;;;8.15;4.03;;;;;;;3.71;58.26;101014.53;7395481;19;20038;-68
2023/03/17 06:18:12;;;;;;;7.68;3.75;;;;;;;3.75;58.52;101015.44;7398076;19;20070;-68
2023/03/17 06:20:40;;;;;;;10.48;4.32;;;;;;;3.77;58.28;101007.66;7395930;19;20035;-69
2023/03/17 06:23:09;;;;;;;8.07;4.00;;;;;;;3.80;57.67;101007.72;7396016;19;20010;-68
2023/03/17 06:25:38;;;;;;;9.13;5.57;;;;;;;3.83;57.55;101008.63;7396500;19;20021;-68
2023/03/17 06:28:07;;;;;;;6.05;3.95;;;;;;;3.85;57.92;101006.03;7395555;19;20056;-68
2023/03/17 06:30:37;;;;;;;15.10;6.95;;;;;;;3.90;57.53;101000.03;7397811;19;20516;-68
2023/03/17 06:33:08;;;;;;;6.63;3.88;;;;;;;3.92;56.97;100997.44;7398034;19;20086;-68
2023/03/17 06:35:37;;;;;;;8.93;5.38;;;;;;;3.97;57.43;100994.88;7396239;19;20015;-67
2023/03/17 06:38:05;;;;;;;6.35;3.95;;;;;;;4.02;57.12;100998.38;7396979;19;20014;-68
2023/03/17 06:40:34;;;;;;;6.18;3.97;;;;;;;4.03;56.52;100990.63;7397612;19;20485;-67
2023/03/17 06:43:02;;;;;;;6.72;4.18;;;;;;;4.07;56.97;100995.00;7396404;19;20086;-68
2023/03/17 06:45:31;;;;;;;7.32;4.22;;;;;;;4.10;56.88;100986.34;7395289;19;20022;-68
2023/03/17 06:48:00;;;;;;;7.57;4.20;;;;;;;4.14;56.38;100980.31;7395820;19;20028;-68
2023/03/17 06:50:31;;;;;;;7.85;4.35;;;;;;;4.18;55.18;100984.72;7397669;19;20085;-68
2023/03/17 06:53:00;;;;;;;7.85;3.78;;;;;;;4.24;55.55;100986.47;7397539;19;20064;-68
2023/03/17 06:55:29;;;;;;;7.20;3.72;;;;;;;4.29;55.94;100979.59;7395887;19;20014;-68
2023/03/17 06:57:57;;;;;;;6.70;4.07;;;;;;;4.34;55.25;100972.69;7395092;19;20020;-69
2023/03/17 07:00:26;;;;;;;7.25;3.90;;;;;;;4.38;55.77;100974.44;7395199;19;20014;-69
2023/03/17 07:02:54;;;;;;;8.85;4.47;;;;;;;4.44;55.73;100955.47;7397050;19;20077;-68
2023/03/17 07:05:23;;;;;;;11.23;6.28;;;;;;;4.49;55.82;100952.91;7396578;19;20090;-69
2023/03/17 07:07:54;;;;;;;7.07;4.60;;;;;;;4.55;54.92;100968.53;7396919;19;20010;-68
2023/03/17 07:10:23;;;;;;;8.27;4.35;;;;;;;4.59;55.47;100972.88;7397834;19;20022;-67
2023/03/17 07:12:52;;;;;;;6.53;4.13;;;;;;;4.63;55.53;100966.84;7396239;19;20363;-67
2023/03/17 07:15:20;;;;;;;10.63;4.45;;;;;;;4.67;54.84;100945.19;7395222;19;20018;-68
2023/03/17 07:17:49;;;;;;;7.55;4.15;;;;;;;4.72;54.95;100938.28;7397691;19;20026;-68
2023/03/17 07:20:18;;;;;;;5.68;3.80;;;;;;;4.78;54.92;100941.78;7396294;19;20577;-67
2023/03/17 07:22:47;;;;;;;6.15;3.78;;;;;;;4.85;54.26;100957.44;7393680;19;20016;-68
2023/03/17 07:25:18;;;;;;;9.35;4.13;;;;;;;4.93;53.41;100951.41;7396402;19;20018;-68
2023/03/17 07:27:46;;;;;;;7.68;3.97;;;;;;;5.01;53.94;100942.78;7395116;19;20018;-67
2023/03/17 07:30:17;;;;;;;7.70;4.07;;;;;;;5.06;54.15;100942.81;7396259;19;20019;-68
2023/03/17 07:32:46;;;;;;;6.85;4.40;;;;;;;5.16;53.39;100954.13;7396616;19;20019;-69
2023/03/17 07:35:15;;;;;;;7.40;3.78;;;;;;;5.23;53.78;100955.84;7395130;19;20507;-69
2023/03/17 07:37:44;;;;;;;9.32;4.68;;;;;;;5.30;53.73;100946.38;7396011;19;20086;-68
2023/03/17 07:40:13;;;;;;;8.13;4.45;;;;;;;5.35;53.21;100942.03;7396799;19;20078;-68
2023/03/17 07:42:44;;;;;;;7.15;3.70;;;;;;;5.38;52.01;100940.31;7395415;19;20358;-68
2023/03/17 07:45:13;;;;;;;7.75;4.50;;;;;;;5.38;53.29;100942.03;7395792;19;20025;-69
2023/03/17 07:47:42;;;;;;;7.70;4.38;;;;;;;5.42;52.89;100945.53;7395970;19;20025;-69
2023/03/17 07:50:11;;;;;;;7.80;5.05;;;;;;;5.44;53.04;100951.63;7396244;19;20021;-69
2023/03/17 07:52:41;;;;;;;6.85;4.28;;;;;;;5.47;53.32;100954.22;7395788;19;20085;-69
2023/03/17 07:55:11;;;;;;;7.10;4.55;;;;;;;5.51;53.19;100958.53;7394858;19;20486;-68
2023/03/17 07:57:40;;;;;;;9.32;4.13;;;;;;;5.55;53.38;100952.50;7395848;19;20018;-68
2023/03/17 08:00:12;;;;;;;8.32;4.40;;;;;;;5.62;52.06;100953.38;7395300;19;20377;-67
2023/03/17 08:02:41;;;;;;;7.40;4.55;;;;;;;5.68;53.64;100962.06;7395169;19;20015;-68
2023/03/17 08:05:10;;;;;;;7.72;4.55;;;;;;;5.74;52.03;100955.13;7394865;19;20506;-68
2023/03/17 08:07:39;;;;;;;7.43;4.32;;;;;;;5.78;52.74;100962.94;7394965;19;20061;-68
2023/03/17 08:10:10;;;;;;;7.82;3.70;;;;;;;5.84;51.88;100962.09;7393690;19;20022;-68
2023/03/17 08:12:38;;;;;;;9.85;5.05;;;;;;;5.89;51.58;100960.38;7391881;19;20490;-69
2023/03/17 08:15:11;;;;;;;11.00;5.10;;;;;;;5.96;51.73;100967.31;7394426;19;20079;-70
2023/03/17 08:17:40;;;;;;;9.25;5.03;;;;;;;6.02;50.48;100956.94;7393015;19;20492;-69
2023/03/17 08:20:10;;;;;;;8.77;4.68;;;;;;;6.13;52.06;100945.63;7395101;19;20086;-69
2023/03/17 08:22:38;;;;;;;18.60;10.23;;;;;;;6.22;52.42;100950.88;7393763;19;20014;-67
2023/03/17 08:25:08;;;;;;;13.52;6.65;;;;;;;6.33;52.42;100945.63;7392529;19;20079;-68
2023/03/17 08:27:37;;;;;;;8.88;4.65;;;;;;;6.46;51.61;100951.72;7394652;19;20019;-68
2023/03/17 08:30:07;;;;;;;6.10;3.70;;;;;;;6.58;51.32;100946.47;7394909;19;20018;-68
2023/03/17 08:32:38;;;;;;;9.43;4.07;;;;;;;6.71;49.67;100943.84;7394152;19;20358;-70
2023/03/17 08:35:07;;;;;;;5.90;3.80;;;;;;;6.83;50.81;100943.81;7394299;19;20011;-72
2023/03/17 08:37:36;;;;;;;8.10;4.07;;;;;;;6.94;50.65;100933.34;7394566;19;20023;-73
2023/03/17 08:40:08;;;;;;;7.65;4.97;;;;;;;7.03;50.16;100925.47;7392358;19;20034;-67
2023/03/17 08:42:38;;;;;;;10.40;5.55;;;;;;;7.10;48.09;100913.25;7396975;19;20021;-67
2023/03/17 08:45:08;;;;;;;8.15;5.00;;;;;;;7.16;49.21;100911.47;7394071;19;20038;-66
2023/03/17 08:47:40;;;;;;;9.68;5.30;;;;;;;7.21;46.16;100916.69;7392255;19;20038;-66
2023/03/17 08:50:12;;;;;;;8.60;4.50;;;;;;;7.26;47.61;100925.34;7394909;19;20022;-66
2023/03/17 08:52:41;;;;;;;8.20;4.03;;;;;;;7.32;49.58;100919.25;7392506;19;20030;-65
2023/03/17 08:55:10;;;;;;;5.55;4.10;;;;;;;7.37;48.69;100925.31;7393575;19;20011;-66
2023/03/17 08:57:39;;;;;;;6.40;4.32;;;;;;;7.42;48.87;100923.53;7392048;19;20020;-65
2023/03/17 09:00:10;;;;;;;6.97;3.85;;;;;;;7.48;47.96;100926.13;7391986;19;20022;-66
2023/03/17 09:02:42;;;;;;;7.10;4.55;;;;;;;7.52;47.76;100910.41;7394196;19;20082;-66
2023/03/17 09:05:13;;;;;;;8.40;4.45;;;;;;;7.59;48.51;100912.97;7394530;19;20018;-66
2023/03/17 09:07:42;;;;;;;5.82;4.55;;;;;;;7.64;48.67;100911.19;7393495;19;20478;-65
2023/03/17 09:10:13;;;;;;;6.75;4.50;;;;;;;7.71;48.65;100916.38;7394486;19;20023;-66
2023/03/17 09:12:42;;;;;;;5.45;3.78;;;;;;;7.76;47.62;100909.38;7392017;19;20029;-66
2023/03/17 09:15:13;;;;;;;6.65;4.10;;;;;;;7.83;48.12;100905.84;7392610;19;20014;-67
2023/03/17 09:17:44;;;;;;;6.25;4.10;;;;;;;7.91;47.02;100905.78;7395020;19;20102;-67
2023/03/17 09:20:13;;;;;;;7.40;3.90;;;;;;;7.98;47.16;100900.50;7391954;19;20023;-69
2023/03/17 09:22:41;;;;;;;9.57;4.47;;;;;;;8.07;47.61;100906.53;7391908;19;20378;-67
2023/03/17 09:25:11;;;;;;;7.05;3.95;;;;;;;8.14;47.70;100901.22;7398787;19;20031;-67
2023/03/17 09:27:39;;;;;;;4.82;3.58;;;;;;;8.22;47.51;100901.16;7400550;19;20042;-68
2023/03/17 09:30:09;;;;;;;6.85;4.72;;;;;;;8.29;47.63;100896.72;7400722;19;20018;-65
2023/03/17 09:32:38;;;;;;;5.43;3.85;;;;;;;8.38;47.55;100903.63;7400106;19;20019;-66
2023/03/17 09:35:10;;;;;;;8.52;3.95;;;;;;;8.45;47.16;100907.91;7399537;19;20017;-66
2023/03/17 09:37:45;;;;;;;5.80;3.75;;;;;;;8.54;45.07;100902.59;7399889;19;20042;-66
2023/03/17 09:40:20;;;;;;;5.93;4.18;;;;;;;8.60;46.08;100891.22;7397647;19;20031;-66
2023/03/17 09:42:58;;;;;;;6.40;4.72;;;;;;;8.68;45.44;100891.13;7400620;19;20014;-66
2023/03/17 09:45:35;;;;;;;6.68;4.18;;;;;;;8.75;44.80;100882.34;7401010;19;20029;-66
2023/03/17 09:48:25;;;;;;;7.60;4.05;;;;;;;8.86;45.99;100879.56;7398696;19;20025;-65
2023/03/17 09:50:59;;;;;;;7.40;4.28;;;;;;;8.97;46.02;100882.91;7399947;19;20019;-67
2023/03/17 09:53:32;;;;;;;;;;;;;;;9.06;43.19;100876.72;7399884;19;20014;-66
2023/03/17 09:56:04;;;;;;;6.80;3.90;;;;;;;9.16;45.30;100873.06;7399215;19;19925;-66
2023/03/17 09:58:35;;;;;;;8.30;4.30;;;;;;;9.24;46.13;100876.47;7397626;19;20014;-66
2023/03/17 10:01:04;;;;;;;4.57;3.38;;;;;;;9.34;45.64;100881.56;7400364;19;20030;-67
2023/03/17 10:03:33;;;;;;;5.90;3.55;;;;;;;9.43;46.48;100876.22;7398497;19;20058;-66
2023/03/17 10:06:20;;;;;;;7.82;3.88;;;;;;;9.51;43.67;100876.94;7399065;19;20494;-66
2023/03/17 10:08:56;;;;;;;7.05;4.38;;;;;;;9.62;44.55;100867.16;7399856;19;20023;-67
2023/03/17 10:11:34;;;;;;;6.05;4.10;;;;;;;9.70;44.25;100872.28;7399133;19;20029;-67
2023/03/17 10:14:09;;;;;;;6.07;4.00;;;;;;;9.80;45.40;100875.63;7397647;19;20357;-67
2023/03/17 10:16:52;;;;;;;8.00;4.05;;;;;;;9.90;43.31;100869.31;7396826;19;20485;-68
2023/03/17 10:19:28;;;;;;;5.90;3.93;;;;;;;10.00;43.65;100870.03;7396557;19;20022;-67
2023/03/17 10:22:03;;;;;;;6.88;3.85;;;;;;;10.09;43.13;100861.16;7396368;19;20011;-66
2023/03/17 10:24:34;;;;;;;7.03;4.07;;;;;;;10.17;44.88;100861.88;7396818;19;20384;-68
2023/03/17 10:27:08;;;;;;;4.30;3.55;;;;;;;10.25;45.03;100859.97;7398814;19;20074;-68
2023/03/17 10:29:37;;;;;;;;;;;;;;;10.35;43.55;100871.16;7398933;19;20091;-68
2023/03/17 10:32:06;;;;;;;7.43;4.13;;;;;;;10.45;45.89;100857.91;7398473;19;19918;-69
2023/03/17 10:34:36;;;;;;;5.75;3.83;;;;;;;10.55;44.57;100855.09;7394964;19;20018;-68
2023/03/17 10:37:11;;;;;;;6.57;4.20;;;;;;;10.64;44.70;100853.16;7396433;19;20385;-69
2023/03/17 10:39:46;;;;;;;11.57;5.22;;;;;;;10.74;44.60;100857.31;7397620;19;20021;-68
2023/03/17 10:42:21;;;;;;;7.22;4.15;;;;;;;10.84;45.44;100853.63;7398520;19;20019;-68
2023/03/17 10:44:54;;;;;;;8.07;4.35;;;;;;;10.93;44.79;100847.28;7395930;19;20022;-68
2023/03/17 10:47:33;;;;;;;7.88;3.78;;;;;;;11.03;43.02;100847.97;7398345;19;20022;-68
2023/03/17 10:50:06;;;;;;;6.75;4.18;;;;;;;11.10;44.41;100844.31;7396238;19;20090;-68
2023/03/17 10:52:41;;;;;;;5.15;3.55;;;;;;;11.18;41.96;100847.59;7395638;19;20035;-68
2023/03/17 10:55:13;;;;;;;7.10;3.90;;;;;;;11.25;43.15;100843.94;7398157;19;20007;-68
2023/03/17 10:57:50;;;;;;;7.70;3.25;;;;;;;11.33;43.17;100840.28;7395916;19;20022;-68
2023/03/17 11:00:22;;;;;;;7.30;3.78;;;;;;;11.41;43.52;100838.34;7397843;19;20025;-68
2023/03/17 11:02:55;;;;;;;6.72;3.38;;;;;;;11.49;42.29;100828.53;7397761;19;20126;-69
2023/03/17 11:05:26;;;;;;;6.55;3.30;;;;;;;11.58;43.25;100823.03;7395436;19;20035;-68
2023/03/17 11:08:09;;;;;;;7.20;3.78;;;;;;;11.68;42.00;100821.03;7395253;19;20018;-68
2023/03/17 11:10:40;;;;;;;6.80;4.03;;;;;;;11.76;43.51;100820.84;7397384;19;20018;-68
2023/03/17 11:13:09;;;;;;;6.25;3.50;;;;;;;11.87;43.08;100804.81;7395197;19;20078;-67
2023/03/17 11:15:42;;;;;;;5.85;3.55;;;;;;;11.96;41.12;100801.97;7396355;19;20068;-68
2023/03/17 11:18:17;;;;;;;6.93;3.80;;;;;;;12.01;39.71;100794.81;7397266;19;20028;-68
2023/03/17 11:20:54;;;;;;;4.95;3.15;;;;;;;12.07;40.54;100801.69;7396112;19;20486;-69
2023/03/17 11:23:55;;;;;;;5.38;3.42;;;;;;;12.16;39.15;100790.91;7394219;19;20006;-69
2023/03/17 11:26:50;;;;;;;5.95;3.55;;;;;;;12.28;41.25;100796.72;7393690;19;20529;-70
2023/03/17 11:29:26;;;;;;;5.32;3.58;;;;;;;12.36;40.77;100797.41;7395794;19;20014;-69
2023/03/17 11:32:01;;;;;;;4.30;3.10;;;;;;;12.46;39.83;100801.47;7397529;19;20010;-68
2023/03/17 11:34:42;;;;;;;5.40;3.42;;;;;;;12.53;39.73;100796.91;7394997;19;20074;-68
2023/03/17 11:37:22;;;;;;;4.70;3.60;;;;;;;12.58;39.42;100794.13;7396510;19;20018;-69
2023/03/17 11:39:59;;;;;;;5.32;3.60;;;;;;;12.65;41.14;100790.41;7397692;19;20025;-68
2023/03/17 11:42:34;;;;;;;5.55;3.65;;;;;;;12.72;41.04;100776.16;7395861;19;20018;-69
2023/03/17 11:45:18;;;;;;;7.28;3.60;;;;;;;12.75;39.25;100791.88;7396522;19;20029;-68
2023/03/17 11:48:02;;;;;;;5.72;3.20;;;;;;;12.79;40.27;100787.34;7392756;19;20029;-68